createdAt,value
2023-04-18T00:00:02.732Z,10.12
2023-04-18T00:00:49.799Z,10.09
2023-04-18T00:01:38.640Z,10.08
2023-04-18T00:02:27.480Z,10.00
2023-04-18T00:03:16.204Z,10.00
2023-04-18T00:04:05.267Z,9.98
2023-04-18T00:04:52.742Z,9.93
2023-04-18T00:05:40.507Z,10.19
2023-04-18T00:06:30.321Z,10.17
2023-04-18T00:07:18.050Z,10.20
2023-04-18T00:08:05.720Z,10.30
2023-04-18T00:08:52.886Z,10.28
2023-04-18T00:09:40.064Z,10.32
2023-04-18T00:10:27.067Z,10.25
2023-04-18T00:11:14.245Z,10.19
2023-04-18T00:12:02.235Z,10.21
2023-04-18T00:12:49.341Z,10.29
2023-04-18T00:13:38.705Z,10.31
2023-04-18T00:14:25.913Z,10.29
2023-04-18T00:15:13.074Z,10.32
2023-04-18T00:16:00.149Z,10.29
2023-04-18T00:16:47.306Z,10.22
2023-04-18T00:17:35.814Z,10.23
2023-04-18T00:18:22.986Z,10.22
2023-04-18T00:19:10.815Z,10.16
2023-04-18T00:20:02.701Z,10.19
2023-04-18T00:20:49.755Z,10.25
2023-04-18T00:21:37.579Z,10.29
2023-04-18T00:22:25.747Z,10.28
2023-04-18T00:23:14.292Z,10.26
2023-04-18T00:24:01.538Z,10.20
2023-04-18T00:24:52.325Z,10.26
2023-04-18T00:25:39.273Z,10.23
2023-04-18T00:26:27.396Z,10.20
2023-04-18T00:27:14.436Z,10.20
2023-04-18T00:28:01.726Z,10.21
2023-04-18T00:28:48.876Z,10.25
2023-04-18T00:29:36.292Z,10.26
2023-04-18T00:30:23.582Z,10.25
2023-04-18T00:31:10.836Z,10.23
2023-04-18T00:31:58.429Z,10.26
2023-04-18T00:32:45.534Z,10.37
2023-04-18T00:33:32.586Z,10.34
2023-04-18T00:34:19.627Z,10.32
2023-04-18T00:35:07.141Z,10.30
2023-04-18T00:35:54.493Z,10.36
2023-04-18T00:36:41.574Z,10.38
2023-04-18T00:37:29.568Z,10.40
2023-04-18T00:38:16.585Z,10.38
2023-04-18T00:39:03.922Z,10.37
2023-04-18T00:39:54.616Z,10.41
2023-04-18T00:40:42.284Z,10.38
2023-04-18T00:41:30.592Z,10.41
2023-04-18T00:42:17.655Z,10.47
2023-04-18T00:43:04.847Z,10.47
2023-04-18T00:43:51.922Z,10.42
2023-04-18T00:44:39.016Z,10.42
2023-04-18T00:45:26.227Z,10.50
2023-04-18T00:46:13.360Z,10.50
2023-04-18T00:47:00.838Z,10.40
2023-04-18T00:47:47.877Z,10.30
2023-04-18T00:48:35.106Z,10.33
2023-04-18T00:49:22.626Z,10.38
2023-04-18T00:50:10.825Z,10.41
2023-04-18T00:51:00.785Z,10.48
2023-04-18T00:51:47.869Z,10.40
2023-04-18T00:52:36.243Z,10.46
2023-04-18T00:53:23.543Z,10.35
2023-04-18T00:54:13.815Z,10.40
2023-04-18T00:55:01.037Z,10.34
2023-04-18T00:55:48.407Z,10.34
2023-04-18T00:56:36.543Z,10.37
2023-04-18T00:57:23.601Z,10.42
2023-04-18T00:58:10.886Z,10.35
2023-04-18T00:58:58.199Z,10.40
2023-04-18T00:59:46.948Z,10.45
2023-04-18T01:00:34.650Z,10.33
2023-04-18T01:01:21.706Z,10.38
2023-04-18T01:02:09.373Z,10.37
2023-04-18T01:02:56.639Z,10.43
2023-04-18T01:03:44.410Z,10.44
2023-04-18T01:04:35.016Z,10.42
2023-04-18T01:05:23.309Z,10.35
2023-04-18T01:06:10.493Z,10.34
2023-04-18T01:06:57.884Z,10.41
2023-04-18T01:07:45.798Z,10.43
2023-04-18T01:08:33.071Z,10.37
2023-04-18T01:09:20.477Z,10.34
2023-04-18T01:10:09.137Z,10.34
2023-04-18T01:10:56.256Z,10.31
2023-04-18T01:11:43.238Z,10.37
2023-04-18T01:12:30.825Z,10.47
2023-04-18T01:13:19.523Z,10.49
2023-04-18T01:14:08.025Z,10.46
2023-04-18T01:14:55.127Z,10.49
2023-04-18T01:15:43.282Z,10.37
2023-04-18T01:16:33.032Z,10.36
2023-04-18T01:17:20.165Z,10.38
2023-04-18T01:18:09.187Z,10.33
2023-04-18T01:18:57.299Z,10.35
2023-04-18T01:19:44.924Z,10.36
2023-04-18T01:20:32.047Z,10.47
2023-04-18T01:21:20.430Z,10.59
2023-04-18T01:22:07.875Z,10.52
2023-04-18T01:22:55.604Z,10.54
2023-04-18T01:23:42.917Z,10.47
2023-04-18T01:24:32.183Z,10.46
2023-04-18T01:25:19.363Z,10.40
2023-04-18T01:26:06.421Z,10.34
2023-04-18T01:26:53.462Z,10.37
2023-04-18T01:27:40.513Z,10.40
2023-04-18T01:28:28.182Z,10.46
2023-04-18T01:29:15.558Z,10.47
2023-04-18T01:30:02.704Z,10.53
2023-04-18T01:30:49.933Z,10.51
2023-04-18T01:31:38.252Z,10.51
2023-04-18T01:32:25.253Z,10.44
2023-04-18T01:33:12.324Z,10.47
2023-04-18T01:33:59.333Z,10.41
2023-04-18T01:34:46.421Z,10.36
2023-04-18T01:35:34.011Z,10.27
2023-04-18T01:36:21.047Z,10.32
2023-04-18T01:37:08.117Z,10.25
2023-04-18T01:37:55.435Z,10.26
2023-04-18T01:38:42.605Z,10.27
2023-04-18T01:39:29.718Z,10.26
2023-04-18T01:40:16.799Z,10.40
2023-04-18T01:41:03.991Z,10.34
2023-04-18T01:41:51.007Z,10.26
2023-04-18T01:42:38.234Z,10.13
2023-04-18T01:43:25.222Z,10.15
2023-04-18T01:44:12.537Z,10.10
2023-04-18T01:44:59.814Z,10.08
2023-04-18T01:45:46.863Z,10.12
2023-04-18T01:46:34.548Z,10.08
2023-04-18T01:47:21.729Z,9.95
2023-04-18T01:48:09.221Z,10.03
2023-04-18T01:48:57.215Z,10.11
2023-04-18T01:49:48.353Z,10.10
2023-04-18T01:50:35.619Z,10.05
2023-04-18T01:51:22.822Z,10.02
2023-04-18T01:52:09.921Z,10.03
2023-04-18T01:52:56.938Z,9.94
2023-04-18T01:53:44.017Z,9.86
2023-04-18T01:54:31.126Z,9.93
2023-04-18T01:55:18.140Z,9.94
2023-04-18T01:56:05.474Z,10.02
2023-04-18T01:56:52.537Z,10.00
2023-04-18T01:57:39.547Z,10.12
2023-04-18T01:58:27.050Z,10.14
2023-04-18T01:59:14.223Z,10.19
2023-04-18T02:00:01.989Z,10.17
2023-04-18T02:00:52.914Z,10.06
2023-04-18T02:01:39.985Z,10.07
2023-04-18T02:02:27.141Z,9.99
2023-04-18T02:03:14.552Z,10.08
2023-04-18T02:04:01.916Z,10.13
2023-04-18T02:04:49.030Z,10.12
2023-04-18T02:05:37.721Z,10.15
2023-04-18T02:06:25.251Z,10.19
2023-04-18T02:07:12.306Z,10.18
2023-04-18T02:07:59.679Z,10.12
2023-04-18T02:08:46.716Z,10.13
2023-04-18T02:09:33.968Z,10.16
2023-04-18T02:10:21.476Z,10.02
2023-04-18T02:11:08.568Z,9.92
2023-04-18T02:11:56.586Z,10.03
2023-04-18T02:12:43.558Z,10.05
2023-04-18T02:13:30.678Z,10.07
2023-04-18T02:14:17.708Z,10.10
2023-04-18T02:15:05.086Z,10.14
2023-04-18T02:15:52.322Z,10.14
2023-04-18T02:16:39.540Z,10.11
2023-04-18T02:17:26.606Z,10.04
2023-04-18T02:18:13.663Z,10.02
2023-04-18T02:19:01.715Z,9.96
2023-04-18T02:19:48.858Z,10.02
2023-04-18T02:20:36.625Z,10.06
2023-04-18T02:21:24.730Z,9.92
2023-04-18T02:22:11.714Z,10.00
2023-04-18T02:22:59.510Z,9.89
2023-04-18T02:23:46.592Z,9.96
2023-04-18T02:24:33.777Z,9.97
2023-04-18T02:25:23.929Z,9.89
2023-04-18T02:26:11.082Z,9.79
2023-04-18T02:26:58.708Z,9.82
2023-04-18T02:27:47.121Z,9.81
2023-04-18T02:28:34.560Z,9.89
2023-04-18T02:29:21.642Z,9.96
2023-04-18T02:30:11.060Z,10.04
2023-04-18T02:31:00.264Z,10.06
2023-04-18T02:31:47.328Z,10.06
2023-04-18T02:32:34.667Z,9.97
2023-04-18T02:33:21.988Z,9.89
2023-04-18T02:34:09.417Z,9.71
2023-04-18T02:34:56.597Z,9.67
2023-04-18T02:35:43.579Z,9.70
2023-04-18T02:36:31.278Z,9.70
2023-04-18T02:37:18.291Z,9.83
2023-04-18T02:38:05.313Z,9.89
2023-04-18T02:38:52.444Z,9.95
2023-04-18T02:39:39.469Z,9.91
2023-04-18T02:40:26.406Z,9.96
2023-04-18T02:41:15.486Z,10.01
2023-04-18T02:42:02.446Z,10.01
2023-04-18T02:42:49.497Z,9.96
2023-04-18T02:43:36.470Z,9.98
2023-04-18T02:44:23.511Z,9.80
2023-04-18T02:45:11.039Z,9.86
2023-04-18T02:45:58.093Z,9.91
2023-04-18T02:46:45.129Z,9.99
2023-04-18T02:47:40.467Z,9.94
2023-04-18T02:48:34.389Z,9.90
2023-04-18T02:49:21.406Z,9.80
2023-04-18T02:50:09.067Z,9.70
2023-04-18T02:51:05.185Z,9.78
2023-04-18T02:51:56.196Z,9.94
2023-04-18T02:52:44.096Z,9.99
2023-04-18T02:53:31.653Z,10.03
2023-04-18T02:54:18.906Z,10.04
2023-04-18T02:55:06.540Z,9.96
2023-04-18T02:55:53.629Z,9.97
2023-04-18T02:56:40.657Z,10.05
2023-04-18T02:57:27.527Z,10.08
2023-04-18T02:58:14.582Z,10.12
2023-04-18T02:59:01.526Z,10.14
2023-04-18T02:59:48.695Z,10.10
2023-04-18T03:00:36.356Z,9.97
2023-04-18T03:01:23.479Z,9.88
2023-04-18T03:02:10.777Z,9.85
2023-04-18T03:02:58.017Z,9.94
2023-04-18T03:03:45.247Z,9.99
2023-04-18T03:04:32.430Z,10.02
2023-04-18T03:05:20.239Z,9.96
2023-04-18T03:06:07.615Z,9.97
2023-04-18T03:06:56.290Z,10.02
2023-04-18T03:07:43.488Z,9.92
2023-04-18T03:08:30.692Z,9.88
2023-04-18T03:09:17.745Z,9.82
2023-04-18T03:10:05.131Z,9.77
2023-04-18T03:10:52.264Z,9.84
2023-04-18T03:11:39.505Z,9.83
2023-04-18T03:12:26.580Z,9.91
2023-04-18T03:13:13.623Z,9.89
2023-04-18T03:14:00.816Z,9.96
2023-04-18T03:14:47.946Z,9.90
2023-04-18T03:15:35.167Z,9.92
2023-04-18T03:16:22.565Z,9.95
2023-04-18T03:17:09.784Z,10.01
2023-04-18T03:17:57.080Z,10.07
2023-04-18T03:18:44.517Z,10.11
2023-04-18T03:19:32.396Z,10.14
2023-04-18T03:20:19.600Z,10.02
2023-04-18T03:21:07.586Z,9.98
2023-04-18T03:21:54.782Z,9.96
2023-04-18T03:22:41.864Z,9.94
2023-04-18T03:23:28.907Z,9.90
2023-04-18T03:24:16.251Z,9.98
2023-04-18T03:25:03.858Z,10.08
2023-04-18T03:25:50.885Z,10.04
2023-04-18T03:26:37.857Z,9.93
2023-04-18T03:27:24.930Z,9.99
2023-04-18T03:28:11.939Z,10.05
2023-04-18T03:28:59.003Z,10.01
2023-04-18T03:29:46.095Z,9.97
2023-04-18T03:30:33.201Z,9.99
2023-04-18T03:31:20.555Z,9.93
2023-04-18T03:32:07.954Z,9.91
2023-04-18T03:32:56.426Z,9.88
2023-04-18T03:33:44.503Z,9.94
2023-04-18T03:34:31.536Z,9.87
2023-04-18T03:35:19.077Z,9.91
2023-04-18T03:36:06.499Z,9.91
2023-04-18T03:36:54.416Z,9.92
2023-04-18T03:37:41.475Z,9.92
2023-04-18T03:38:28.545Z,9.86
2023-04-18T03:39:15.663Z,9.91
2023-04-18T03:40:02.685Z,9.91
2023-04-18T03:40:49.704Z,9.92
2023-04-18T03:41:36.846Z,9.85
2023-04-18T03:42:24.105Z,9.85
2023-04-18T03:43:11.779Z,9.88
2023-04-18T03:43:59.030Z,9.82
2023-04-18T03:44:45.964Z,9.80
2023-04-18T03:45:33.071Z,9.77
2023-04-18T03:46:22.221Z,9.75
2023-04-18T03:47:09.285Z,9.74
2023-04-18T03:47:56.754Z,9.87
2023-04-18T03:48:43.729Z,9.88
2023-04-18T03:49:31.033Z,9.88
2023-04-18T03:50:18.117Z,9.86
2023-04-18T03:51:06.352Z,9.89
2023-04-18T03:51:53.430Z,9.90
2023-04-18T03:52:40.444Z,9.86
2023-04-18T03:53:27.484Z,9.81
2023-04-18T03:54:15.819Z,9.82
2023-04-18T03:55:03.107Z,9.91
2023-04-18T03:55:50.809Z,9.87
2023-04-18T03:56:38.574Z,9.88
2023-04-18T03:57:26.699Z,9.90
2023-04-18T03:58:14.112Z,9.88
2023-04-18T03:59:01.264Z,9.90
2023-04-18T03:59:48.348Z,9.91
2023-04-18T04:00:35.725Z,9.85
2023-04-18T04:01:22.746Z,9.86
2023-04-18T04:02:09.988Z,9.85
2023-04-18T04:02:57.354Z,9.90
2023-04-18T04:03:44.728Z,9.85
2023-04-18T04:04:31.845Z,9.85
2023-04-18T04:05:19.028Z,9.87
2023-04-18T04:06:06.852Z,9.81
2023-04-18T04:06:53.941Z,9.79
2023-04-18T04:07:40.929Z,9.89
2023-04-18T04:08:28.379Z,9.91
2023-04-18T04:09:15.536Z,9.92
2023-04-18T04:10:02.561Z,9.87
2023-04-18T04:10:49.566Z,9.88
2023-04-18T04:11:36.783Z,9.90
2023-04-18T04:12:24.299Z,9.86
2023-04-18T04:13:11.573Z,9.97
2023-04-18T04:13:58.650Z,10.05
2023-04-18T04:14:45.640Z,10.04
2023-04-18T04:15:32.919Z,10.00
2023-04-18T04:16:19.908Z,10.00
2023-04-18T04:17:07.305Z,9.94
2023-04-18T04:17:54.586Z,9.87
2023-04-18T04:18:41.639Z,9.93
2023-04-18T04:19:28.633Z,10.00
2023-04-18T04:20:15.951Z,10.00
2023-04-18T04:21:04.202Z,10.00
2023-04-18T04:21:51.415Z,9.92
2023-04-18T04:22:38.440Z,10.04
2023-04-18T04:23:28.768Z,10.07
2023-04-18T04:24:16.590Z,10.14
2023-04-18T04:25:05.360Z,10.14
2023-04-18T04:25:53.307Z,10.17
2023-04-18T04:26:40.562Z,10.16
2023-04-18T04:27:27.569Z,10.23
2023-04-18T04:28:14.697Z,10.26
2023-04-18T04:29:03.718Z,10.23
2023-04-18T04:29:52.468Z,10.15
2023-04-18T04:30:41.922Z,10.11
2023-04-18T04:31:29.145Z,10.10
2023-04-18T04:32:17.175Z,10.04
2023-04-18T04:33:04.297Z,10.08
2023-04-18T04:33:51.495Z,10.11
2023-04-18T04:34:38.601Z,10.07
2023-04-18T04:35:26.941Z,9.94
2023-04-18T04:36:18.859Z,9.97
2023-04-18T04:37:06.461Z,10.04
2023-04-18T04:37:53.708Z,10.08
2023-04-18T04:38:41.858Z,10.11
2023-04-18T04:39:29.277Z,10.16
2023-04-18T04:40:16.408Z,10.20
2023-04-18T04:41:04.021Z,10.15
2023-04-18T04:41:53.827Z,10.16
2023-04-18T04:42:41.491Z,10.18
2023-04-18T04:43:28.983Z,10.15
2023-04-18T04:44:19.316Z,10.15
2023-04-18T04:45:08.834Z,10.13
2023-04-18T04:45:56.107Z,10.20
2023-04-18T04:46:45.030Z,10.19
2023-04-18T04:47:32.195Z,10.26
2023-04-18T04:48:20.262Z,10.19
2023-04-18T04:49:07.887Z,10.21
2023-04-18T04:49:55.109Z,10.25
2023-04-18T04:50:42.558Z,10.36
2023-04-18T04:51:29.583Z,10.40
2023-04-18T04:52:16.748Z,10.37
2023-04-18T04:53:04.120Z,10.35
2023-04-18T04:53:51.255Z,10.29
2023-04-18T04:54:38.224Z,10.32
2023-04-18T04:55:25.185Z,10.31
2023-04-18T04:56:12.821Z,10.34
2023-04-18T04:56:59.995Z,10.34
2023-04-18T04:57:47.994Z,10.28
2023-04-18T04:58:35.048Z,10.30
2023-04-18T04:59:22.128Z,10.35
2023-04-18T05:00:09.692Z,10.33
2023-04-18T05:00:58.264Z,10.21
2023-04-18T05:02:04.322Z,10.28
2023-04-18T05:02:55.229Z,10.26
2023-04-18T05:03:43.094Z,10.40
2023-04-18T05:04:30.625Z,10.41
2023-04-18T05:05:17.726Z,10.45
2023-04-18T05:06:04.958Z,10.41
2023-04-18T05:06:52.028Z,10.43
2023-04-18T05:07:39.099Z,10.38
2023-04-18T05:08:26.517Z,10.33
2023-04-18T05:09:14.044Z,10.43
2023-04-18T05:10:01.083Z,10.47
2023-04-18T05:10:50.027Z,10.36
2023-04-18T05:11:37.007Z,10.28
2023-04-18T05:12:23.985Z,10.29
2023-04-18T05:13:10.924Z,10.34
2023-04-18T05:13:58.218Z,10.30
2023-04-18T05:14:45.228Z,10.32
2023-04-18T05:15:32.614Z,10.35
2023-04-18T05:16:19.684Z,10.39
2023-04-18T05:17:08.086Z,10.42
2023-04-18T05:17:55.174Z,10.35
2023-04-18T05:18:42.527Z,10.48
2023-04-18T05:19:29.503Z,10.36
2023-04-18T05:20:16.605Z,10.29
2023-04-18T05:21:03.805Z,10.31
2023-04-18T05:21:51.393Z,10.28
2023-04-18T05:22:38.529Z,10.34
2023-04-18T05:23:25.533Z,10.39
2023-04-18T05:24:12.871Z,10.40
2023-04-18T05:25:00.004Z,10.40
2023-04-18T05:25:46.987Z,10.35
2023-04-18T05:26:34.099Z,10.41
2023-04-18T05:27:21.875Z,10.39
2023-04-18T05:28:09.234Z,10.38
2023-04-18T05:28:56.339Z,10.36
2023-04-18T05:29:43.515Z,10.43
2023-04-18T05:30:31.185Z,10.33
2023-04-18T05:31:18.579Z,10.31
2023-04-18T05:32:14.573Z,10.37
2023-04-18T05:33:01.801Z,10.41
2023-04-18T05:33:48.915Z,10.45
2023-04-18T05:34:38.745Z,10.46
2023-04-18T05:35:26.714Z,10.44
2023-04-18T05:36:13.850Z,10.42
2023-04-18T05:37:01.126Z,10.41
2023-04-18T05:37:53.832Z,10.37
2023-04-18T05:38:41.214Z,10.46
2023-04-18T05:39:28.334Z,10.53
2023-04-18T05:40:15.608Z,10.53
2023-04-18T05:41:03.476Z,10.53
2023-04-18T05:41:50.887Z,10.56
2023-04-18T05:42:38.121Z,10.57
2023-04-18T05:43:25.343Z,10.55
2023-04-18T05:44:12.701Z,10.67
2023-04-18T05:45:02.217Z,10.63
2023-04-18T05:45:49.155Z,10.66
2023-04-18T05:46:36.280Z,10.68
2023-04-18T05:47:27.066Z,10.62
2023-04-18T05:48:14.389Z,10.69
2023-04-18T05:49:02.464Z,10.63
2023-04-18T05:49:49.462Z,10.61
2023-04-18T05:50:36.638Z,10.53
2023-04-18T05:51:23.802Z,10.48
2023-04-18T05:52:11.598Z,10.44
2023-04-18T05:52:59.663Z,10.41
2023-04-18T05:53:46.775Z,10.54
2023-04-18T05:54:33.820Z,10.65
2023-04-18T05:55:20.956Z,10.68
2023-04-18T05:56:08.076Z,10.69
2023-04-18T05:56:55.527Z,10.83
2023-04-18T05:57:42.709Z,10.95
2023-04-18T05:58:29.857Z,10.88
2023-04-18T05:59:16.891Z,10.93
2023-04-18T06:00:07.185Z,10.96
2023-04-18T06:00:54.446Z,10.97
2023-04-18T06:01:41.493Z,10.99
2023-04-18T06:02:28.845Z,10.86
2023-04-18T06:03:16.229Z,10.85
2023-04-18T06:04:03.731Z,10.79
2023-04-18T06:04:52.409Z,10.86
2023-04-18T06:05:41.283Z,10.86
2023-04-18T06:06:28.893Z,10.92
2023-04-18T06:07:16.186Z,10.93
2023-04-18T06:08:03.819Z,10.91
2023-04-18T06:08:50.929Z,10.96
2023-04-18T06:09:38.189Z,10.97
2023-04-18T06:10:25.442Z,11.03
2023-04-18T06:11:12.958Z,10.94
2023-04-18T06:12:00.177Z,10.94
2023-04-18T06:12:47.240Z,10.88
2023-04-18T06:13:34.989Z,10.90
2023-04-18T06:14:23.697Z,10.83
2023-04-18T06:15:11.876Z,10.95
2023-04-18T06:15:58.955Z,11.06
2023-04-18T06:16:46.171Z,11.14
2023-04-18T06:17:34.652Z,11.31
2023-04-18T06:18:21.812Z,11.36
2023-04-18T06:19:09.081Z,11.23
2023-04-18T06:19:56.228Z,11.11
2023-04-18T06:20:45.585Z,11.24
2023-04-18T06:21:32.998Z,11.21
2023-04-18T06:22:20.038Z,11.32
2023-04-18T06:23:08.480Z,11.20
2023-04-18T06:23:55.579Z,11.26
2023-04-18T06:24:43.883Z,11.09
2023-04-18T06:25:32.080Z,11.12
2023-04-18T06:26:19.095Z,11.09
2023-04-18T06:27:14.939Z,11.09
2023-04-18T06:28:07.870Z,11.19
2023-04-18T06:28:54.961Z,11.17
2023-04-18T06:29:43.587Z,11.22
2023-04-18T06:30:30.735Z,11.19
2023-04-18T06:31:17.900Z,11.17
2023-04-18T06:32:05.675Z,11.12
2023-04-18T06:32:52.816Z,11.17
2023-04-18T06:33:39.883Z,11.21
2023-04-18T06:34:26.815Z,11.35
2023-04-18T06:35:13.927Z,11.41
2023-04-18T06:36:00.980Z,11.38
2023-04-18T06:36:48.322Z,11.37
2023-04-18T06:37:35.523Z,11.48
2023-04-18T06:38:22.700Z,11.57
2023-04-18T06:39:09.824Z,11.57
2023-04-18T06:39:56.853Z,11.64
2023-04-18T06:40:44.091Z,11.60
2023-04-18T06:41:32.699Z,11.57
2023-04-18T06:42:22.867Z,11.71
2023-04-18T06:43:10.777Z,11.87
2023-04-18T06:44:02.882Z,11.87
2023-04-18T06:44:51.363Z,11.93
2023-04-18T06:45:39.264Z,11.88
2023-04-18T06:46:26.676Z,11.85
2023-04-18T06:47:16.471Z,11.77
2023-04-18T06:48:04.802Z,11.92
2023-04-18T06:48:52.020Z,11.97
2023-04-18T06:49:38.968Z,11.94
2023-04-18T06:50:27.169Z,11.82
2023-04-18T06:51:14.363Z,11.88
2023-04-18T06:52:01.364Z,12.03
2023-04-18T06:52:50.057Z,12.03
2023-04-18T06:53:37.534Z,11.94
2023-04-18T06:54:24.911Z,12.01
2023-04-18T06:55:13.257Z,11.96
2023-04-18T06:56:00.539Z,11.90
2023-04-18T06:56:47.686Z,11.86
2023-04-18T06:57:34.786Z,11.97
2023-04-18T06:58:21.922Z,12.01
2023-04-18T06:59:09.316Z,11.88
2023-04-18T06:59:56.336Z,12.04
2023-04-18T07:00:43.905Z,12.07
2023-04-18T07:01:34.355Z,12.04
2023-04-18T07:02:21.911Z,12.10
2023-04-18T07:03:16.016Z,12.12
2023-04-18T07:04:14.628Z,12.07
2023-04-18T07:05:01.998Z,12.11
2023-04-18T07:05:50.644Z,12.21
2023-04-18T07:06:37.804Z,12.13
2023-04-18T07:07:24.787Z,12.02
2023-04-18T07:08:11.830Z,11.96
2023-04-18T07:09:01.534Z,11.84
2023-04-18T07:09:49.658Z,11.96
2023-04-18T07:10:36.645Z,11.93
2023-04-18T07:11:24.118Z,11.94
2023-04-18T07:12:11.280Z,12.02
2023-04-18T07:12:58.378Z,12.17
2023-04-18T07:13:47.505Z,12.21
2023-04-18T07:14:34.576Z,12.30
2023-04-18T07:15:21.783Z,12.25
2023-04-18T07:16:10.085Z,12.29
2023-04-18T07:16:58.091Z,12.26
2023-04-18T07:17:45.102Z,12.26
2023-04-18T07:18:37.945Z,12.37
2023-04-18T07:19:25.552Z,12.31
2023-04-18T07:20:14.252Z,12.40
2023-04-18T07:21:02.201Z,12.38
2023-04-18T07:21:49.206Z,12.31
2023-04-18T07:22:36.080Z,12.50
2023-04-18T07:23:23.130Z,12.65
2023-04-18T07:24:10.695Z,12.74
2023-04-18T07:24:57.703Z,12.81
2023-04-18T07:25:45.475Z,12.81
2023-04-18T07:26:32.733Z,12.65
2023-04-18T07:27:19.647Z,12.71
2023-04-18T07:28:06.791Z,12.79
2023-04-18T07:28:53.807Z,12.92
2023-04-18T07:29:40.847Z,13.14
2023-04-18T07:30:27.991Z,13.13
2023-04-18T07:31:16.873Z,13.28
2023-04-18T07:32:05.176Z,13.35
2023-04-18T07:32:53.715Z,13.32
2023-04-18T07:33:40.930Z,13.32
2023-04-18T07:34:30.104Z,13.05
2023-04-18T07:35:17.315Z,12.97
2023-04-18T07:36:04.454Z,12.81
2023-04-18T07:36:51.832Z,12.80
2023-04-18T07:37:38.997Z,12.83
2023-04-18T07:38:26.041Z,12.88
2023-04-18T07:39:13.109Z,12.93
2023-04-18T07:40:00.251Z,12.94
2023-04-18T07:40:47.414Z,13.01
2023-04-18T07:41:35.290Z,13.12
2023-04-18T07:42:22.310Z,13.03
2023-04-18T07:43:09.471Z,13.04
2023-04-18T07:43:56.379Z,12.94
2023-04-18T07:44:43.875Z,12.63
2023-04-18T07:45:31.258Z,12.60
2023-04-18T07:46:18.332Z,12.60
2023-04-18T07:47:11.897Z,12.61
2023-04-18T07:47:58.984Z,12.54
2023-04-18T07:48:46.539Z,12.57
2023-04-18T07:49:33.668Z,12.45
2023-04-18T07:50:20.624Z,12.43
2023-04-18T07:51:07.908Z,12.39
2023-04-18T07:51:56.710Z,12.48
2023-04-18T07:52:43.778Z,12.36
2023-04-18T07:53:30.819Z,12.27
2023-04-18T07:54:17.840Z,12.40
2023-04-18T07:55:05.332Z,12.48
2023-04-18T07:55:52.267Z,12.39
2023-04-18T07:56:39.239Z,12.44
2023-04-18T07:57:26.287Z,12.63
2023-04-18T07:58:13.806Z,12.51
2023-04-18T07:59:01.959Z,12.39
2023-04-18T07:59:49.067Z,12.36
2023-04-18T08:00:39.579Z,12.40
2023-04-18T08:01:27.483Z,12.51
2023-04-18T08:02:14.589Z,12.63
2023-04-18T08:03:02.248Z,12.84
2023-04-18T08:03:49.631Z,12.90
2023-04-18T08:04:36.922Z,12.77
2023-04-18T08:05:24.119Z,12.90
2023-04-18T08:06:11.329Z,12.94
2023-04-18T08:06:58.304Z,12.96
2023-04-18T08:07:45.298Z,13.05
2023-04-18T08:08:32.358Z,13.16
2023-04-18T08:09:20.787Z,13.10
2023-04-18T08:10:08.919Z,13.13
2023-04-18T08:10:56.222Z,13.14
2023-04-18T08:11:43.458Z,13.13
2023-04-18T08:12:31.600Z,13.14
2023-04-18T08:13:18.572Z,13.25
2023-04-18T08:14:05.465Z,13.31
2023-04-18T08:14:52.490Z,13.33
2023-04-18T08:15:40.687Z,13.44
2023-04-18T08:16:29.442Z,13.06
2023-04-18T08:17:16.683Z,12.98
2023-04-18T08:18:03.972Z,13.09
2023-04-18T08:18:51.299Z,13.09
2023-04-18T08:19:38.467Z,12.93
2023-04-18T08:20:25.742Z,12.82
2023-04-18T08:21:13.221Z,12.73
2023-04-18T08:22:18.179Z,12.83
2023-04-18T08:23:08.727Z,12.86
2023-04-18T08:23:57.836Z,12.90
2023-04-18T08:25:01.171Z,12.81
2023-04-18T08:25:51.246Z,12.85
2023-04-18T08:26:38.351Z,12.97
2023-04-18T08:27:25.385Z,13.03
2023-04-18T08:28:13.737Z,13.12
2023-04-18T08:29:00.859Z,12.98
2023-04-18T08:29:47.900Z,13.04
2023-04-18T08:30:35.000Z,13.22
2023-04-18T08:31:22.383Z,13.44
2023-04-18T08:32:09.548Z,13.48
2023-04-18T08:32:56.717Z,13.54
2023-04-18T08:33:43.869Z,13.34
2023-04-18T08:34:33.915Z,13.35
2023-04-18T08:35:21.098Z,13.36
2023-04-18T08:36:08.618Z,13.27
2023-04-18T08:36:55.778Z,13.29
2023-04-18T08:37:43.506Z,13.18
2023-04-18T08:38:30.978Z,12.98
2023-04-18T08:39:18.008Z,12.96
2023-04-18T08:40:07.855Z,12.94
2023-04-18T08:40:54.836Z,12.77
2023-04-18T08:41:44.510Z,12.86
2023-04-18T08:42:31.638Z,12.64
2023-04-18T08:43:19.335Z,12.80
2023-04-18T08:44:07.871Z,12.63
2023-04-18T08:44:54.808Z,12.57
2023-04-18T08:45:44.862Z,12.46
2023-04-18T08:46:36.693Z,12.39
2023-04-18T08:47:24.097Z,12.32
2023-04-18T08:48:15.274Z,12.40
2023-04-18T08:49:06.443Z,12.38
2023-04-18T08:49:53.906Z,12.41
2023-04-18T08:50:44.918Z,12.20
2023-04-18T08:51:35.977Z,12.18
2023-04-18T08:52:23.655Z,12.25
2023-04-18T08:53:11.417Z,12.34
2023-04-18T08:54:02.972Z,12.28
2023-04-18T08:54:51.325Z,12.28
2023-04-18T08:55:38.327Z,12.35
2023-04-18T08:56:27.490Z,12.34
2023-04-18T08:57:26.962Z,12.05
2023-04-18T08:58:22.511Z,11.91
2023-04-18T08:59:09.874Z,11.95
2023-04-18T08:59:57.563Z,12.09
2023-04-18T09:00:50.704Z,12.03
2023-04-18T09:01:56.750Z,12.09
2023-04-18T09:02:45.196Z,12.11
2023-04-18T09:03:37.838Z,12.05
2023-04-18T09:04:37.131Z,11.96
2023-04-18T09:05:25.742Z,11.91
2023-04-18T09:06:19.498Z,11.89
2023-04-18T09:07:09.038Z,11.90
2023-04-18T09:07:57.068Z,12.00
2023-04-18T09:08:44.359Z,11.99
2023-04-18T09:09:58.604Z,11.94
2023-04-18T09:10:46.737Z,11.95
2023-04-18T09:11:34.737Z,11.97
2023-04-18T09:12:26.632Z,12.01
2023-04-18T09:13:13.740Z,11.87
2023-04-18T09:14:00.767Z,11.79
2023-04-18T09:14:48.750Z,11.78
2023-04-18T09:15:35.640Z,11.87
2023-04-18T09:16:23.539Z,11.95
2023-04-18T09:17:13.414Z,11.97
2023-04-18T09:18:03.112Z,12.00
2023-04-18T09:19:13.599Z,12.10
2023-04-18T09:20:02.185Z,12.10
2023-04-18T09:20:50.050Z,12.11
2023-04-18T09:21:40.537Z,12.08
2023-04-18T09:22:27.480Z,12.16
2023-04-18T09:23:23.702Z,12.25
2023-04-18T09:24:28.666Z,12.18
2023-04-18T09:25:40.797Z,12.23
2023-04-18T09:26:36.457Z,12.36
2023-04-18T09:27:24.999Z,12.51
2023-04-18T09:28:29.287Z,12.47
2023-04-18T09:29:22.736Z,12.43
2023-04-18T09:30:10.702Z,12.51
2023-04-18T09:31:14.773Z,12.43
2023-04-18T09:32:02.303Z,12.41
2023-04-18T09:32:58.340Z,12.32
2023-04-18T09:33:54.719Z,12.33
2023-04-18T09:34:42.821Z,12.28
2023-04-18T09:35:30.050Z,12.30
2023-04-18T09:36:21.623Z,12.35
2023-04-18T09:37:14.202Z,12.46
2023-04-18T09:38:01.271Z,12.55
2023-04-18T09:38:49.917Z,12.59
2023-04-18T09:39:41.458Z,12.60
2023-04-18T09:40:28.580Z,12.54
2023-04-18T09:41:21.348Z,12.66
2023-04-18T09:42:10.739Z,12.69
2023-04-18T09:42:57.841Z,12.63
2023-04-18T09:43:46.010Z,12.75
2023-04-18T09:44:33.048Z,12.80
2023-04-18T09:45:20.813Z,12.73
2023-04-18T09:46:08.633Z,12.74
2023-04-18T09:46:56.031Z,12.64
2023-04-18T09:47:43.198Z,12.44
2023-04-18T09:48:30.595Z,12.30
2023-04-18T09:49:17.968Z,12.41
2023-04-18T09:50:06.858Z,12.37
2023-04-18T09:50:55.553Z,12.31
2023-04-18T09:51:44.673Z,12.13
2023-04-18T09:52:35.198Z,12.17
2023-04-18T09:53:22.102Z,12.15
2023-04-18T09:54:11.711Z,12.33
2023-04-18T09:55:00.286Z,12.47
2023-04-18T09:55:53.980Z,12.45
2023-04-18T09:56:46.558Z,12.42
2023-04-18T09:57:34.800Z,12.52
2023-04-18T09:58:22.742Z,12.58
2023-04-18T09:59:10.363Z,12.58
2023-04-18T10:00:00.492Z,12.63
2023-04-18T10:00:47.541Z,12.70
2023-04-18T10:01:35.427Z,12.81
2023-04-18T10:02:23.478Z,13.00
2023-04-18T10:03:11.328Z,13.00
2023-04-18T10:04:01.896Z,13.04
2023-04-18T10:04:51.985Z,12.91
2023-04-18T10:05:40.828Z,12.80
2023-04-18T10:06:29.233Z,13.04
2023-04-18T10:07:17.556Z,13.24
2023-04-18T10:08:04.948Z,13.37
2023-04-18T10:08:52.848Z,13.16
2023-04-18T10:09:44.892Z,13.14
2023-04-18T10:10:33.135Z,13.00
2023-04-18T10:11:20.377Z,12.96
2023-04-18T10:12:07.623Z,12.97
2023-04-18T10:12:57.494Z,13.05
2023-04-18T10:13:48.323Z,13.14
2023-04-18T10:14:36.603Z,13.08
2023-04-18T10:15:25.641Z,13.10
2023-04-18T10:16:13.178Z,13.07
2023-04-18T10:17:00.399Z,13.24
2023-04-18T10:18:06.180Z,13.28
2023-04-18T10:18:53.590Z,13.44
2023-04-18T10:19:44.629Z,13.51
2023-04-18T10:20:33.181Z,13.47
2023-04-18T10:21:21.708Z,13.35
2023-04-18T10:22:09.333Z,13.43
2023-04-18T10:22:57.939Z,13.52
2023-04-18T10:23:49.016Z,13.55
2023-04-18T10:24:56.398Z,13.69